Labrador Sea — WDD4810 — position and weather

sailwx.info

Track history (hours):
 
Tides and Currents Weather Stations Pressure Air Temp Water Temp Dewpoint Dewpoint Depression Visibility Wind Speed Wind Dir Waves Ship Positions

Labrador Sea

Owner: Kirby Offshore Marine, LLC, Houston, TX. More information available from US FCC via Universal Licensing System and Coast Guard Vessel Documentation Center.

Last reported at 2018-Jun-19 08:28 UTC. Time now 2018-Jun-19 08:48 UTC.
Position N 40°40' W 074°00'.

Length 25 m; draft 3.5 m.

Type: Towing. MMSI: 367149390.

Date/timePositionNaut miles runAvg speedWind from/ knotsBaromVisibWave heightAir tempDewpointWater temp
2018-Jun-19 08:28N 40°40' W 074°00'0 0.0
2018-Jun-19 07:58N 40°40' W 074°00'0 0.0
2018-Jun-19 07:28N 40°40' W 074°00'0 0.0
2018-Jun-19 06:58N 40°40' W 074°00'0 0.6
2018-Jun-19 06:30N 40°40' W 074°00'0 0.0
2018-Jun-19 05:59N 40°40' W 074°00'0 0.6
2018-Jun-19 05:29N 40°40' W 074°00'0 0.0
2018-Jun-19 04:59N 40°40' W 074°00'0 0.0
2018-Jun-19 04:29N 40°40' W 074°00'0 0.0
2018-Jun-19 03:59N 40°40' W 074°00'0 0.0
2018-Jun-19 03:29N 40°40' W 074°00'0 0.0
2018-Jun-19 02:59N 40°40' W 074°00'4 7.7
2018-Jun-19 02:30N 40°39' W 074°05'0 0.6
2018-Jun-19 02:00N 40°39' W 074°05'1 0.4
2018-Jun-19 00:47N 40°39' W 074°06'0 0.0
2018-Jun-19 00:11N 40°39' W 074°06'0 0.0
2018-Jun-18 23:50N 40°39' W 074°06'1 2.5
2018-Jun-18 23:25N 40°39' W 074°07'1 3.0
2018-Jun-18 23:00N 40°39' W 074°05'4 8.0
2018-Jun-18 22:30N 40°40' W 074°00'0 0.4
2018-Jun-18 21:59N 40°40' W 074°00'0 0.0
2018-Jun-18 21:29N 40°40' W 074°00'0 0.0
2018-Jun-18 20:59N 40°40' W 074°00'0 0.0
2018-Jun-18 20:29N 40°40' W 074°00'0 0.0
2018-Jun-18 19:59N 40°40' W 074°00'0 0.0
2018-Jun-18 19:29N 40°40' W 074°00'0 0.0
2018-Jun-18 18:59N 40°40' W 074°00'0 0.1
2018-Jun-18 18:29N 40°40' W 074°00'0 0.1
2018-Jun-18 17:55N 40°40' W 074°00'0 0.0
2018-Jun-18 17:28N 40°40' W 074°00'0 0.0
2018-Jun-18 16:58N 40°40' W 074°00'0 0.0
2018-Jun-18 16:28N 40°40' W 074°00'0 0.0
2018-Jun-18 15:58N 40°40' W 074°00'0 0.0
2018-Jun-18 15:28N 40°40' W 074°00'0 0.0
2018-Jun-18 14:58N 40°40' W 074°00'2 4.3
2018-Jun-18 14:30N 40°41' W 074°03'2 3.6
2018-Jun-18 13:58N 40°40' W 074°00'0 0.0
2018-Jun-18 13:28N 40°40' W 074°00'0 0.0
2018-Jun-18 12:58N 40°40' W 074°00'1 1.9
2018-Jun-18 12:30N 40°40' W 074°01'0 0.5
2018-Jun-18 12:00N 40°40' W 074°01'1 1.5
2018-Jun-18 11:30N 40°40' W 074°00'0 0.0
2018-Jun-18 11:00N 40°40' W 074°00'0 0.0
2018-Jun-18 10:30N 40°40' W 074°00'0 0.0
2018-Jun-18 10:00N 40°40' W 074°00'0 0.0
2018-Jun-18 09:30N 40°40' W 074°00'0 0.0
2018-Jun-18 09:00N 40°40' W 074°00'0 0.0
2018-Jun-18 08:30N 40°40' W 074°00'0 0.0
2018-Jun-18 08:00N 40°40' W 074°00'0 0.7
2018-Jun-18 07:30N 40°40' W 074°00'5 8.8
2018-Jun-18 06:59N 40°39' W 074°06'0 0.1
2018-Jun-18 06:22N 40°39' W 074°06'1 0.6
2018-Jun-18 05:05N 40°39' W 074°07'1 7.5
2018-Jun-18 05:00N 40°39' W 074°07'3 5.1
2018-Jun-18 04:30N 40°39' W 074°03'3 4.8
2018-Jun-18 03:58N 40°40' W 074°00'0 0.0
2018-Jun-18 03:28N 40°40' W 074°00'0 0.0
2018-Jun-18 02:58N 40°40' W 074°00'0 0.6
2018-Jun-18 02:29N 40°40' W 074°00'0 0.0
2018-Jun-18 02:00N 40°40' W 074°00'0 0.6
2018-Jun-18 01:29N 40°40' W 074°00'0 0.0
2018-Jun-18 00:59N 40°40' W 074°00'0 0.0
2018-Jun-18 00:29N 40°40' W 074°00'0 0.0
2018-Jun-17 23:59N 40°40' W 074°00'0 0.0
2018-Jun-17 23:29N 40°40' W 074°00'0 0.0
2018-Jun-17 22:59N 40°40' W 074°00'0 0.0
2018-Jun-17 22:29N 40°40' W 074°00'0 0.0
2018-Jun-17 21:59N 40°40' W 074°00'0 0.0
2018-Jun-17 21:29N 40°40' W 074°00'0 0.0
2018-Jun-17 19:53N 40°40' W 074°00'0 0.0
2018-Jun-17 19:29N 40°40' W 074°00'0 0.0
2018-Jun-17 18:59N 40°40' W 074°00'0 0.0
2018-Jun-17 18:29N 40°40' W 074°00'0 0.0
2018-Jun-17 17:56N 40°40' W 074°00'0 0.0
2018-Jun-17 17:26N 40°40' W 074°00'0 0.0
2018-Jun-17 16:56N 40°40' W 074°00'0 0.0
2018-Jun-17 16:29N 40°40' W 074°00'0 0.0
2018-Jun-17 15:56N 40°40' W 074°00'0 0.0
2018-Jun-17 15:29N 40°40' W 074°00'0 0.0
2018-Jun-17 14:47N 40°40' W 074°00'0 0.0
2018-Jun-17 14:26N 40°40' W 074°00'0 0.0
2018-Jun-17 13:59N 40°40' W 074°00'0 0.0
2018-Jun-17 13:29N 40°40' W 074°00'0 0.0
2018-Jun-17 12:59N 40°40' W 074°00'0 0.0
2018-Jun-17 12:29N 40°40' W 074°00'2 3.7
2018-Jun-17 12:00N 40°41' W 074°02'5 6.9
2018-Jun-17 11:17N 40°46' W 074°00'1 3.6
2018-Jun-17 11:00N 40°45' W 074°01'3 6.8
2018-Jun-17 10:30N 40°42' W 074°02'3 6.9
2018-Jun-17 10:00N 40°39' W 074°05'4 6.5
2018-Jun-17 09:28N 40°39' W 074°09'2 4.5
2018-Jun-17 08:54N 40°41' W 074°09'0 0.0
2018-Jun-17 08:09N 40°41' W 074°09'0 0.0
2018-Jun-17 07:57N 40°41' W 074°09'0 0.0
2018-Jun-17 07:30N 40°41' W 074°09'0 0.0
2018-Jun-17 06:39N 40°41' W 074°09'0 0.0
2018-Jun-17 06:27N 40°41' W 074°09'0 0.0
2018-Jun-17 06:00N 40°41' W 074°09'0 0.0
2018-Jun-17 05:27N 40°41' W 074°09'0 0.0
2018-Jun-17 05:00N 40°41' W 074°09'0 0.0
2018-Jun-17 04:30N 40°41' W 074°09'0 0.0
2018-Jun-16 22:27N 40°41' W 074°09'0 0.0
2018-Jun-16 21:33N 40°41' W 074°09'0 0.0
2018-Jun-16 21:27N 40°41' W 074°09'0 0.5
2018-Jun-16 20:58N 40°41' W 074°09'2 4.5
2018-Jun-16 20:30N 40°39' W 074°09'4 7.5
2018-Jun-16 20:01N 40°40' W 074°04'2 3.3
2018-Jun-16 19:30N 40°39' W 074°02'2 3.4
2018-Jun-16 19:00N 40°40' W 074°00'0 0.0
2018-Jun-16 18:30N 40°40' W 074°00'0 0.0
2018-Jun-16 18:00N 40°40' W 074°00'0 0.0
2018-Jun-16 17:30N 40°40' W 074°00'0 0.0
2018-Jun-16 17:00N 40°40' W 074°00'0 0.0
2018-Jun-16 16:30N 40°40' W 074°00'0 0.0
2018-Jun-16 16:00N 40°40' W 074°00'0 0.0
2018-Jun-16 15:30N 40°40' W 074°00'0 0.0
2018-Jun-16 15:00N 40°40' W 074°00'0 0.0
2018-Jun-16 14:30N 40°40' W 074°00'0 0.0
2018-Jun-16 14:00N 40°40' W 074°00'0 0.0
2018-Jun-16 13:30N 40°40' W 074°00'0 0.0
2018-Jun-16 13:00N 40°40' W 074°00'0 0.0
2018-Jun-16 12:30N 40°40' W 074°00'0 0.0
2018-Jun-16 12:00N 40°40' W 074°00'0 0.0
2018-Jun-16 11:30N 40°40' W 074°00'0 0.0
2018-Jun-16 11:00N 40°40' W 074°00'0 0.0
2018-Jun-16 10:30N 40°40' W 074°00'0 0.0
2018-Jun-16 10:00N 40°40' W 074°00'0 0.0
2018-Jun-16 09:27N 40°40' W 074°00'0 0.0
2018-Jun-16 09:00N 40°40' W 074°00'0 0.0
2018-Jun-16 08:30N 40°40' W 074°00'0 0.0
2018-Jun-16 08:00N 40°40' W 074°00'0 0.0
2018-Jun-16 07:30N 40°40' W 074°00'0 0.0
2018-Jun-16 07:00N 40°40' W 074°00'0 0.0
2018-Jun-16 06:30N 40°40' W 074°00'0 0.0
2018-Jun-16 06:00N 40°40' W 074°00'0 0.0
2018-Jun-16 05:30N 40°40' W 074°00'0 0.0
2018-Jun-16 05:00N 40°40' W 074°00'0 0.0
2018-Jun-16 04:30N 40°40' W 074°00'0 0.0
2018-Jun-16 04:00N 40°40' W 074°00'0 0.0
2018-Jun-16 03:30N 40°40' W 074°00'0 0.0
2018-Jun-16 03:00N 40°40' W 074°00'0 0.0
2018-Jun-16 02:30N 40°40' W 074°00'0 0.0
2018-Jun-16 02:00N 40°40' W 074°00'0 0.0
2018-Jun-16 01:30N 40°40' W 074°00'0 0.0
2018-Jun-16 00:58N 40°40' W 074°00'0 0.0
2018-Jun-16 00:28N 40°40' W 074°00'1 2.1
2018-Jun-16 00:00N 40°40' W 074°01'3 5.7
2018-Jun-15 23:30N 40°42' W 073°59'0 1.0
2018-Jun-15 23:00N 40°42' W 073°59'3 5.2
2018-Jun-15 22:30N 40°40' W 074°01'1 1.8
2018-Jun-15 22:00N 40°40' W 074°00'0 0.0
2018-Jun-15 21:30N 40°40' W 074°00'0 0.0
2018-Jun-15 21:00N 40°40' W 074°00'0 0.0
2018-Jun-15 20:30N 40°40' W 074°00'0 0.0
2018-Jun-15 20:00N 40°40' W 074°00'0 0.0
2018-Jun-15 19:30N 40°40' W 074°00'0 0.0
2018-Jun-15 19:00N 40°40' W 074°00'0 0.0
2018-Jun-15 18:30N 40°40' W 074°00'0 0.0
2018-Jun-15 18:00N 40°40' W 074°00'0 0.0
2018-Jun-15 17:30N 40°40' W 074°00'0 0.0
2018-Jun-15 17:00N 40°40' W 074°00'0 0.0
2018-Jun-15 16:30N 40°40' W 074°00'0 0.0
2018-Jun-15 16:00N 40°40' W 074°00'0 0.0
2018-Jun-15 15:30N 40°40' W 074°00'0 0.0
2018-Jun-15 15:00N 40°40' W 074°00'0 0.0
2018-Jun-15 14:30N 40°40' W 074°00'0 0.0
2018-Jun-15 14:00N 40°40' W 074°00'0 0.0
2018-Jun-15 13:30N 40°40' W 074°00'0 0.0
2018-Jun-15 13:00N 40°40' W 074°00'0 0.0
2018-Jun-15 12:30N 40°40' W 074°00'0 0.0
2018-Jun-15 11:57N 40°40' W 074°00'0 0.0
2018-Jun-15 11:30N 40°40' W 074°00'0 0.0
2018-Jun-15 11:00N 40°40' W 074°00'0 0.0
2018-Jun-15 10:30N 40°40' W 074°00'0 0.0
2018-Jun-15 10:00N 40°40' W 074°00'0 0.0
2018-Jun-15 09:30N 40°40' W 074°00'0 0.0
2018-Jun-15 09:00N 40°40' W 074°00'0 0.0
2018-Jun-15 08:30N 40°40' W 074°00'0 0.0
2018-Jun-15 08:00N 40°40' W 074°00'0 0.0
2018-Jun-15 07:30N 40°40' W 074°00'0 0.0
2018-Jun-15 07:00N 40°40' W 074°00'0 0.0
2018-Jun-15 06:30N 40°40' W 074°00'0 0.0
2018-Jun-15 06:00N 40°40' W 074°00'0 0.0
2018-Jun-15 05:30N 40°40' W 074°00'3 5.2
2018-Jun-15 05:00N 40°39' W 074°03'4 8.7
2018-Jun-15 04:30N 40°40' W 074°09'0 0.8
2018-Jun-15 04:00N 40°40' W 074°08'2 5.0
2018-Jun-15 03:30N 40°39' W 074°05'4 8.4
2018-Jun-15 03:00N 40°40' W 074°00'0 0.1
2018-Jun-15 02:30N 40°40' W 074°00'1 2.2
2018-Jun-15 02:01N 40°40' W 074°01'1 2.1
2018-Jun-15 01:30N 40°40' W 074°00'0 0.0
2018-Jun-15 01:00N 40°40' W 074°00'0 0.0
2018-Jun-15 00:30N 40°40' W 074°00'1 1.9
2018-Jun-15 00:00N 40°40' W 074°01'1 1.5
2018-Jun-14 23:30N 40°40' W 074°00'0 0.6
2018-Jun-14 23:00N 40°40' W 074°00'0 0.0
2018-Jun-14 22:30N 40°40' W 074°00'0 0.0
2018-Jun-14 22:00N 40°40' W 074°00'0 0.0
2018-Jun-14 21:30N 40°40' W 074°00'0 0.0
2018-Jun-14 21:00N 40°40' W 074°00'0 0.0
2018-Jun-14 20:30N 40°40' W 074°00'0 0.0
2018-Jun-14 20:00N 40°40' W 074°00'0 0.0
2018-Jun-14 19:30N 40°40' W 074°00'0 0.0
2018-Jun-14 19:00N 40°40' W 074°00'0 0.0
2018-Jun-14 18:30N 40°40' W 074°00'0 0.0
2018-Jun-14 18:00N 40°40' W 074°00'0 0.0
2018-Jun-14 17:30N 40°40' W 074°00'0 0.0
2018-Jun-14 17:00N 40°40' W 074°00'0 0.0
2018-Jun-14 16:30N 40°40' W 074°00'0 0.0
2018-Jun-14 16:00N 40°40' W 074°00'0 0.0
2018-Jun-14 15:30N 40°40' W 074°00'0 0.0
2018-Jun-14 15:00N 40°40' W 074°00'0 0.0
2018-Jun-14 14:30N 40°40' W 074°00'0 0.0
2018-Jun-14 14:00N 40°40' W 074°00'0 0.0
2018-Jun-14 13:30N 40°40' W 074°00'0 0.0
2018-Jun-14 13:00N 40°40' W 074°00'0 0.0
2018-Jun-14 12:27N 40°40' W 074°00'0 0.0
2018-Jun-14 12:00N 40°40' W 074°00'0 0.0
2018-Jun-14 11:30N 40°40' W 074°00'0 0.0
2018-Jun-14 11:00N 40°40' W 074°00'0 0.0
2018-Jun-14 10:30N 40°40' W 074°00'0 0.0
2018-Jun-14 10:00N 40°40' W 074°00'0 0.0
2018-Jun-14 09:30N 40°40' W 074°00'0 0.0
2018-Jun-14 09:00N 40°40' W 074°00'0 0.0
2018-Jun-14 08:30N 40°40' W 074°00'0 0.0
2018-Jun-14 08:00N 40°40' W 074°00'0 0.0
2018-Jun-14 07:30N 40°40' W 074°00'0 0.0
2018-Jun-14 07:00N 40°40' W 074°00'0 0.0
2018-Jun-14 06:30N 40°40' W 074°00'0 0.0
2018-Jun-14 05:57N 40°40' W 074°00'0 0.0
2018-Jun-14 05:30N 40°40' W 074°00'3 5.5
2018-Jun-14 05:00N 40°39' W 074°03'510.7
2018-Jun-14 04:30N 40°39' W 074°10'1 0.2
2018-Jun-14 01:03N 40°39' W 074°11'1 8.3
2018-Jun-14 00:59N 40°39' W 074°11'4 8.9
2018-Jun-14 00:31N 40°39' W 074°05'4 7.6
2018-Jun-14 00:01N 40°40' W 074°00'0 0.5
2018-Jun-13 23:30N 40°40' W 074°00'0 0.0
2018-Jun-13 23:00N 40°40' W 074°00'0 0.0
2018-Jun-13 22:30N 40°40' W 074°00'0 0.0
2018-Jun-13 22:00N 40°40' W 074°00'0 0.0
2018-Jun-13 21:30N 40°40' W 074°00'0 0.0
2018-Jun-13 21:00N 40°40' W 074°00'0 0.0
2018-Jun-13 20:30N 40°40' W 074°00'0 0.0
2018-Jun-13 20:00N 40°40' W 074°00'0 0.0
2018-Jun-13 19:30N 40°40' W 074°00'0 0.0
2018-Jun-13 19:00N 40°40' W 074°00'0 0.0
2018-Jun-13 18:30N 40°40' W 074°00'2 4.3
2018-Jun-13 17:59N 40°40' W 074°03'1 1.7
2018-Jun-13 17:30N 40°40' W 074°02'1 2.9
2018-Jun-13 16:59N 40°40' W 074°00'0 0.0
2018-Jun-13 16:29N 40°40' W 074°00'0 0.0
2018-Jun-13 15:59N 40°40' W 074°00'0 0.0
2018-Jun-13 15:29N 40°40' W 074°00'1 2.9
2018-Jun-13 15:00N 40°41' W 074°00'2 3.7
2018-Jun-13 14:31N 40°40' W 074°01'3 5.2
2018-Jun-13 13:57N 40°38' W 074°04'2 5.4
2018-Jun-13 13:30N 40°40' W 074°02'1 2.1
2018-Jun-13 13:00N 40°40' W 074°01'1 1.2
2018-Jun-13 12:28N 40°40' W 074°00'1 1.4
2018-Jun-13 12:00N 40°40' W 074°01'4 7.2
2018-Jun-13 11:30N 40°43' W 074°01'3 4.1
2018-Jun-13 10:48N 40°46' W 074°00'2 8.2
2018-Jun-13 10:30N 40°44' W 074°01'4 7.8
2018-Jun-13 10:00N 40°40' W 074°00'0 0.6
2018-Jun-13 09:28N 40°40' W 074°00'0 0.0
2018-Jun-13 08:58N 40°40' W 074°00'0 0.0
2018-Jun-13 08:28N 40°40' W 074°00'0 0.0
2018-Jun-13 07:58N 40°40' W 074°00'0 0.0
2018-Jun-13 07:28N 40°40' W 074°00'0 0.0
2018-Jun-13 06:58N 40°40' W 074°00'0 0.0
2018-Jun-13 06:28N 40°40' W 074°00'0 0.0
2018-Jun-13 05:58N 40°40' W 074°00'0 0.0
2018-Jun-13 05:28N 40°40' W 074°00'0 0.0
2018-Jun-13 04:58N 40°40' W 074°00'0 0.0
2018-Jun-13 04:28N 40°40' W 074°00'0 0.0
2018-Jun-13 03:58N 40°40' W 074°00'0 0.0
2018-Jun-13 03:28N 40°40' W 074°00'0 0.0
2018-Jun-13 02:58N 40°40' W 074°00'0 0.0
2018-Jun-13 02:25N 40°40' W 074°00'0 0.0
2018-Jun-13 01:58N 40°40' W 074°00'0 0.0
2018-Jun-13 01:28N 40°40' W 074°00'0 0.0
2018-Jun-13 00:58N 40°40' W 074°00'0 0.0
2018-Jun-13 00:28N 40°40' W 074°00'3 7.0
2018-Jun-13 00:00N 40°39' W 074°04'2 3.5
2018-Jun-12 23:29N 40°39' W 074°07'2 4.8
2018-Jun-12 23:00N 40°39' W 074°04'2 4.1
2018-Jun-12 22:29N 40°40' W 074°01'1 1.0
2018-Jun-12 22:00N 40°40' W 074°00'0 0.5
2018-Jun-12 21:29N 40°40' W 074°00'0 0.0
2018-Jun-12 20:59N 40°40' W 074°00'0 0.0
2018-Jun-12 20:29N 40°40' W 074°00'0 0.0
2018-Jun-12 19:59N 40°40' W 074°00'0 0.0
2018-Jun-12 19:29N 40°40' W 074°00'1 1.2
2018-Jun-12 19:00N 40°40' W 074°01'2 3.4
2018-Jun-12 18:28N 40°40' W 074°03'0 0.6
2018-Jun-12 18:00N 40°40' W 074°03'5 8.5
2018-Jun-12 17:28N 40°39' W 074°09'2 2.0
2018-Jun-12 16:22N 40°41' W 074°09'2 5.8
2018-Jun-12 16:00N 40°39' W 074°09'4 7.4
2018-Jun-12 15:30N 40°39' W 074°04'3 5.9
2018-Jun-12 14:58N 40°40' W 074°00'0 0.6
2018-Jun-12 14:28N 40°40' W 074°00'0 0.0
2018-Jun-12 13:58N 40°40' W 074°00'0 0.6
2018-Jun-12 13:30N 40°40' W 074°00'0 0.0
2018-Jun-12 13:00N 40°40' W 074°00'0 0.0
2018-Jun-12 12:30N 40°40' W 074°00'0 0.0
2018-Jun-12 12:00N 40°40' W 074°00'0 0.0
2018-Jun-12 10:18N 40°40' W 074°00'0 0.0
2018-Jun-12 10:00N 40°40' W 074°00'0 0.0
2018-Jun-12 00:06N 40°40' W 074°00'0 0.0
2018-Jun-12 00:00N 40°40' W 074°00'0 0.1
2018-Jun-11 18:18N 40°40' W 074°00'6 7.7
2018-Jun-11 17:29N 40°40' W 074°09'2 4.6
2018-Jun-11 16:56N 40°39' W 074°06'3 8.0
2018-Jun-11 16:30N 40°40' W 074°01'1 0.2
2018-Jun-11 14:09N 40°40' W 074°00'0 0.1
2018-Jun-11 11:14N 40°40' W 074°00'0 0.0
2018-Jun-11 10:59N 40°40' W 074°00'0 0.0
2018-Jun-11 10:20N 40°40' W 074°00'0 0.0
2018-Jun-11 09:56N 40°40' W 074°00'0 0.0
2018-Jun-11 09:20N 40°40' W 074°00'0 0.0
2018-Jun-11 08:50N 40°40' W 074°00'0 0.0
2018-Jun-11 08:26N 40°40' W 074°00'0 0.0
2018-Jun-11 07:44N 40°40' W 074°00'0 0.0
2018-Jun-11 07:23N 40°40' W 074°00'0 0.0
2018-Jun-11 06:56N 40°40' W 074°00'0 0.0
2018-Jun-11 06:29N 40°40' W 074°00'0 0.0
2018-Jun-11 05:59N 40°40' W 074°00'0 0.0
2018-Jun-11 05:29N 40°40' W 074°00'0 0.0
2018-Jun-11 04:59N 40°40' W 074°00'0 0.0
2018-Jun-11 04:29N 40°40' W 074°00'0 0.0
2018-Jun-11 03:59N 40°40' W 074°00'0 0.0
2018-Jun-11 03:29N 40°40' W 074°00'0 0.0
2018-Jun-11 02:59N 40°40' W 074°00'0 0.0
2018-Jun-11 02:29N 40°40' W 074°00'0 0.0
2018-Jun-11 01:59N 40°40' W 074°00'0 0.0
2018-Jun-11 01:29N 40°40' W 074°00'0 0.0
2018-Jun-11 00:59N 40°40' W 074°00'0 0.0
2018-Jun-11 00:29N 40°40' W 074°00'0 0.0
2018-Jun-10 23:59N 40°40' W 074°00'0 0.0
2018-Jun-10 23:29N 40°40' W 074°00'0 0.0
2018-Jun-10 22:59N 40°40' W 074°00'0 0.0
2018-Jun-10 22:29N 40°40' W 074°00'0 0.0
2018-Jun-10 21:59N 40°40' W 074°00'0 0.0
2018-Jun-10 21:29N 40°40' W 074°00'0 0.0
2018-Jun-10 21:00N 40°40' W 074°00'1 2.5
2018-Jun-10 20:30N 40°41' W 074°01'0 0.3
2018-Jun-10 20:00N 40°41' W 074°00'1 2.6
2018-Jun-10 19:28N 40°40' W 074°00'0 0.0
2018-Jun-10 18:58N 40°40' W 074°00'0 0.0
2018-Jun-10 18:28N 40°40' W 074°00'0 0.0
2018-Jun-10 17:58N 40°40' W 074°00'0 0.0
2018-Jun-10 17:28N 40°40' W 074°00'0 0.0
2018-Jun-10 16:52N 40°40' W 074°00'0 0.0
2018-Jun-10 16:25N 40°40' W 074°00'0 0.0
2018-Jun-10 15:58N 40°40' W 074°00'0 0.0
2018-Jun-10 15:28N 40°40' W 074°00'0 0.0
2018-Jun-10 14:58N 40°40' W 074°00'0 0.0
2018-Jun-10 14:28N 40°40' W 074°00'0 0.0
2018-Jun-10 13:28N 40°40' W 074°00'0 0.0
2018-Jun-10 12:55N 40°40' W 074°00'0 0.0
2018-Jun-10 12:25N 40°40' W 074°00'0 0.0
2018-Jun-10 11:58N 40°40' W 074°00'0 0.0
2018-Jun-10 11:25N 40°40' W 074°00'0 0.0
2018-Jun-10 10:58N 40°40' W 074°00'0 0.0
2018-Jun-10 10:28N 40°40' W 074°00'0 0.0
2018-Jun-10 09:55N 40°40' W 074°00'0 0.0
2018-Jun-10 09:25N 40°40' W 074°00'0 0.0
2018-Jun-10 08:58N 40°40' W 074°00'0 0.0
2018-Jun-10 08:28N 40°40' W 074°00'0 0.0
2018-Jun-10 07:58N 40°40' W 074°00'0 0.0
2018-Jun-10 07:28N 40°40' W 074°00'0 0.0
2018-Jun-10 06:58N 40°40' W 074°00'0 0.0
2018-Jun-10 06:28N 40°40' W 074°00'0 0.0
2018-Jun-10 05:58N 40°40' W 074°00'0 0.0
2018-Jun-10 05:28N 40°40' W 074°00'0 0.0
2018-Jun-10 04:58N 40°40' W 074°00'0 0.0
2018-Jun-10 04:30N 40°40' W 074°00'0 0.0
2018-Jun-10 04:00N 40°40' W 074°00'0 0.0
2018-Jun-10 03:30N 40°40' W 074°00'0 0.0
2018-Jun-10 03:00N 40°40' W 074°00'0 0.0
2018-Jun-10 02:30N 40°40' W 074°00'0 0.0
2018-Jun-10 02:00N 40°40' W 074°00'0 0.0
2018-Jun-10 01:31N 40°40' W 074°00'0 0.6
2018-Jun-10 01:00N 40°40' W 074°00'0 0.0
2018-Jun-10 00:31N 40°40' W 074°00'0 0.0
2018-Jun-10 00:00N 40°40' W 074°00'1 2.2
2018-Jun-09 23:31N 40°41' W 074°01'3 5.4
2018-Jun-09 23:01N 40°42' W 073°58'0 0.3
2018-Jun-09 22:31N 40°42' W 073°58'0 0.1
2018-Jun-09 22:01N 40°42' W 073°58'0 0.4
2018-Jun-09 21:31N 40°42' W 073°58'0 0.3
2018-Jun-09 21:01N 40°42' W 073°58'0 0.0
2018-Jun-09 20:31N 40°42' W 073°58'0 0.0
2018-Jun-09 20:01N 40°42' W 073°58'0 0.0
2018-Jun-09 19:29N 40°42' W 073°58'0 0.0
2018-Jun-09 19:00N 40°42' W 073°58'0 0.0
2018-Jun-09 18:31N 40°42' W 073°58'0 0.0
2018-Jun-09 18:00N 40°42' W 073°58'0 0.0
2018-Jun-09 17:31N 40°42' W 073°58'1 1.3
2018-Jun-09 17:01N 40°42' W 073°59'4 8.3
2018-Jun-09 16:30N 40°40' W 074°03'3 1.2
2018-Jun-09 13:50N 40°39' W 074°07'3 8.7
2018-Jun-09 13:29N 40°39' W 074°11'  
Track history (hours):
 
Tides and Currents Weather Stations Pressure Air Temp Water Temp Dewpoint Dewpoint Depression Visibility Wind Speed Wind Dir Waves Ship Positions

Labrador Sea

Owner: Kirby Offshore Marine, LLC, Houston, TX. More information available from US FCC via Universal Licensing System and Coast Guard Vessel Documentation Center.

Last reported at 2018-Jun-19 08:28 UTC. Time now 2018-Jun-19 08:48 UTC.
Position N 40°40' W 074°00'.

Length 25 m; draft 3.5 m.

Type: Towing. MMSI: 367149390.

Date/timePositionNaut miles runAvg speedWind from/ knotsBaromVisibWave heightAir tempDewpointWater temp
2018-Jun-19 08:28N 40°40' W 074°00'0 0.0
2018-Jun-19 07:58N 40°40' W 074°00'0 0.0
2018-Jun-19 07:28N 40°40' W 074°00'0 0.0
2018-Jun-19 06:58N 40°40' W 074°00'0 0.6
2018-Jun-19 06:30N 40°40' W 074°00'0 0.0
2018-Jun-19 05:59N 40°40' W 074°00'0 0.6
2018-Jun-19 05:29N 40°40' W 074°00'0 0.0
2018-Jun-19 04:59N 40°40' W 074°00'0 0.0
2018-Jun-19 04:29N 40°40' W 074°00'0 0.0
2018-Jun-19 03:59N 40°40' W 074°00'0 0.0
2018-Jun-19 03:29N 40°40' W 074°00'0 0.0
2018-Jun-19 02:59N 40°40' W 074°00'4 7.7
2018-Jun-19 02:30N 40°39' W 074°05'0 0.6
2018-Jun-19 02:00N 40°39' W 074°05'1 0.4
2018-Jun-19 00:47N 40°39' W 074°06'0 0.0
2018-Jun-19 00:11N 40°39' W 074°06'0 0.0
2018-Jun-18 23:50N 40°39' W 074°06'1 2.5
2018-Jun-18 23:25N 40°39' W 074°07'1 3.0
2018-Jun-18 23:00N 40°39' W 074°05'4 8.0
2018-Jun-18 22:30N 40°40' W 074°00'0 0.4
2018-Jun-18 21:59N 40°40' W 074°00'0 0.0
2018-Jun-18 21:29N 40°40' W 074°00'0 0.0
2018-Jun-18 20:59N 40°40' W 074°00'0 0.0
2018-Jun-18 20:29N 40°40' W 074°00'0 0.0
2018-Jun-18 19:59N 40°40' W 074°00'0 0.0
2018-Jun-18 19:29N 40°40' W 074°00'0 0.0
2018-Jun-18 18:59N 40°40' W 074°00'0 0.1
2018-Jun-18 18:29N 40°40' W 074°00'0 0.1
2018-Jun-18 17:55N 40°40' W 074°00'0 0.0
2018-Jun-18 17:28N 40°40' W 074°00'0 0.0
2018-Jun-18 16:58N 40°40' W 074°00'0 0.0
2018-Jun-18 16:28N 40°40' W 074°00'0 0.0
2018-Jun-18 15:58N 40°40' W 074°00'0 0.0
2018-Jun-18 15:28N 40°40' W 074°00'0 0.0
2018-Jun-18 14:58N 40°40' W 074°00'2 4.3
2018-Jun-18 14:30N 40°41' W 074°03'2 3.6
2018-Jun-18 13:58N 40°40' W 074°00'0 0.0
2018-Jun-18 13:28N 40°40' W 074°00'0 0.0
2018-Jun-18 12:58N 40°40' W 074°00'1 1.9
2018-Jun-18 12:30N 40°40' W 074°01'0 0.5
2018-Jun-18 12:00N 40°40' W 074°01'1 1.5
2018-Jun-18 11:30N 40°40' W 074°00'0 0.0
2018-Jun-18 11:00N 40°40' W 074°00'0 0.0
2018-Jun-18 10:30N 40°40' W 074°00'0 0.0
2018-Jun-18 10:00N 40°40' W 074°00'0 0.0
2018-Jun-18 09:30N 40°40' W 074°00'0 0.0
2018-Jun-18 09:00N 40°40' W 074°00'0 0.0
2018-Jun-18 08:30N 40°40' W 074°00'0 0.0
2018-Jun-18 08:00N 40°40' W 074°00'0 0.7
2018-Jun-18 07:30N 40°40' W 074°00'5 8.8
2018-Jun-18 06:59N 40°39' W 074°06'0 0.1
2018-Jun-18 06:22N 40°39' W 074°06'1 0.6
2018-Jun-18 05:05N 40°39' W 074°07'1 7.5
2018-Jun-18 05:00N 40°39' W 074°07'3 5.1
2018-Jun-18 04:30N 40°39' W 074°03'3 4.8
2018-Jun-18 03:58N 40°40' W 074°00'0 0.0
2018-Jun-18 03:28N 40°40' W 074°00'0 0.0
2018-Jun-18 02:58N 40°40' W 074°00'0 0.6
2018-Jun-18 02:29N 40°40' W 074°00'0 0.0
2018-Jun-18 02:00N 40°40' W 074°00'0 0.6
2018-Jun-18 01:29N 40°40' W 074°00'0 0.0
2018-Jun-18 00:59N 40°40' W 074°00'0 0.0
2018-Jun-18 00:29N 40°40' W 074°00'0 0.0
2018-Jun-17 23:59N 40°40' W 074°00'0 0.0
2018-Jun-17 23:29N 40°40' W 074°00'0 0.0
2018-Jun-17 22:59N 40°40' W 074°00'0 0.0
2018-Jun-17 22:29N 40°40' W 074°00'0 0.0
2018-Jun-17 21:59N 40°40' W 074°00'0 0.0
2018-Jun-17 21:29N 40°40' W 074°00'0 0.0
2018-Jun-17 19:53N 40°40' W 074°00'0 0.0
2018-Jun-17 19:29N 40°40' W 074°00'0 0.0
2018-Jun-17 18:59N 40°40' W 074°00'0 0.0
2018-Jun-17 18:29N 40°40' W 074°00'0 0.0
2018-Jun-17 17:56N 40°40' W 074°00'0 0.0
2018-Jun-17 17:26N 40°40' W 074°00'0 0.0
2018-Jun-17 16:56N 40°40' W 074°00'0 0.0
2018-Jun-17 16:29N 40°40' W 074°00'0 0.0
2018-Jun-17 15:56N 40°40' W 074°00'0 0.0
2018-Jun-17 15:29N 40°40' W 074°00'0 0.0
2018-Jun-17 14:47N 40°40' W 074°00'0 0.0
2018-Jun-17 14:26N 40°40' W 074°00'0 0.0
2018-Jun-17 13:59N 40°40' W 074°00'0 0.0
2018-Jun-17 13:29N 40°40' W 074°00'0 0.0
2018-Jun-17 12:59N 40°40' W 074°00'0 0.0
2018-Jun-17 12:29N 40°40' W 074°00'2 3.7
2018-Jun-17 12:00N 40°41' W 074°02'5 6.9
2018-Jun-17 11:17N 40°46' W 074°00'1 3.6
2018-Jun-17 11:00N 40°45' W 074°01'3 6.8
2018-Jun-17 10:30N 40°42' W 074°02'3 6.9
2018-Jun-17 10:00N 40°39' W 074°05'4 6.5
2018-Jun-17 09:28N 40°39' W 074°09'2 4.5
2018-Jun-17 08:54N 40°41' W 074°09'0 0.0
2018-Jun-17 08:09N 40°41' W 074°09'0 0.0
2018-Jun-17 07:57N 40°41' W 074°09'0 0.0
2018-Jun-17 07:30N 40°41' W 074°09'0 0.0
2018-Jun-17 06:39N 40°41' W 074°09'0 0.0
2018-Jun-17 06:27N 40°41' W 074°09'0 0.0
2018-Jun-17 06:00N 40°41' W 074°09'0 0.0
2018-Jun-17 05:27N 40°41' W 074°09'0 0.0
2018-Jun-17 05:00N 40°41' W 074°09'0 0.0
2018-Jun-17 04:30N 40°41' W 074°09'0 0.0
2018-Jun-16 22:27N 40°41' W 074°09'0 0.0
2018-Jun-16 21:33N 40°41' W 074°09'0 0.0
2018-Jun-16 21:27N 40°41' W 074°09'0 0.5
2018-Jun-16 20:58N 40°41' W 074°09'2 4.5
2018-Jun-16 20:30N 40°39' W 074°09'4 7.5
2018-Jun-16 20:01N 40°40' W 074°04'2 3.3
2018-Jun-16 19:30N 40°39' W 074°02'2 3.4
2018-Jun-16 19:00N 40°40' W 074°00'0 0.0
2018-Jun-16 18:30N 40°40' W 074°00'0 0.0
2018-Jun-16 18:00N 40°40' W 074°00'0 0.0
2018-Jun-16 17:30N 40°40' W 074°00'0 0.0
2018-Jun-16 17:00N 40°40' W 074°00'0 0.0
2018-Jun-16 16:30N 40°40' W 074°00'0 0.0
2018-Jun-16 16:00N 40°40' W 074°00'0 0.0
2018-Jun-16 15:30N 40°40' W 074°00'0 0.0
2018-Jun-16 15:00N 40°40' W 074°00'0 0.0
2018-Jun-16 14:30N 40°40' W 074°00'0 0.0
2018-Jun-16 14:00N 40°40' W 074°00'0 0.0
2018-Jun-16 13:30N 40°40' W 074°00'0 0.0
2018-Jun-16 13:00N 40°40' W 074°00'0 0.0
2018-Jun-16 12:30N 40°40' W 074°00'0 0.0
2018-Jun-16 12:00N 40°40' W 074°00'0 0.0
2018-Jun-16 11:30N 40°40' W 074°00'0 0.0
2018-Jun-16 11:00N 40°40' W 074°00'0 0.0
2018-Jun-16 10:30N 40°40' W 074°00'0 0.0
2018-Jun-16 10:00N 40°40' W 074°00'0 0.0
2018-Jun-16 09:27N 40°40' W 074°00'0 0.0
2018-Jun-16 09:00N 40°40' W 074°00'0 0.0
2018-Jun-16 08:30N 40°40' W 074°00'0 0.0
2018-Jun-16 08:00N 40°40' W 074°00'0 0.0
2018-Jun-16 07:30N 40°40' W 074°00'0 0.0
2018-Jun-16 07:00N 40°40' W 074°00'0 0.0
2018-Jun-16 06:30N 40°40' W 074°00'0 0.0
2018-Jun-16 06:00N 40°40' W 074°00'0 0.0
2018-Jun-16 05:30N 40°40' W 074°00'0 0.0
2018-Jun-16 05:00N 40°40' W 074°00'0 0.0
2018-Jun-16 04:30N 40°40' W 074°00'0 0.0
2018-Jun-16 04:00N 40°40' W 074°00'0 0.0
2018-Jun-16 03:30N 40°40' W 074°00'0 0.0
2018-Jun-16 03:00N 40°40' W 074°00'0 0.0
2018-Jun-16 02:30N 40°40' W 074°00'0 0.0
2018-Jun-16 02:00N 40°40' W 074°00'0 0.0
2018-Jun-16 01:30N 40°40' W 074°00'0 0.0
2018-Jun-16 00:58N 40°40' W 074°00'0 0.0
2018-Jun-16 00:28N 40°40' W 074°00'1 2.1
2018-Jun-16 00:00N 40°40' W 074°01'3 5.7
2018-Jun-15 23:30N 40°42' W 073°59'0 1.0
2018-Jun-15 23:00N 40°42' W 073°59'3 5.2
2018-Jun-15 22:30N 40°40' W 074°01'1 1.8
2018-Jun-15 22:00N 40°40' W 074°00'0 0.0
2018-Jun-15 21:30N 40°40' W 074°00'0 0.0
2018-Jun-15 21:00N 40°40' W 074°00'0 0.0
2018-Jun-15 20:30N 40°40' W 074°00'0 0.0
2018-Jun-15 20:00N 40°40' W 074°00'0 0.0
2018-Jun-15 19:30N 40°40' W 074°00'0 0.0
2018-Jun-15 19:00N 40°40' W 074°00'0 0.0
2018-Jun-15 18:30N 40°40' W 074°00'0 0.0
2018-Jun-15 18:00N 40°40' W 074°00'0 0.0
2018-Jun-15 17:30N 40°40' W 074°00'0 0.0
2018-Jun-15 17:00N 40°40' W 074°00'0 0.0
2018-Jun-15 16:30N 40°40' W 074°00'0 0.0
2018-Jun-15 16:00N 40°40' W 074°00'0 0.0
2018-Jun-15 15:30N 40°40' W 074°00'0 0.0
2018-Jun-15 15:00N 40°40' W 074°00'0 0.0
2018-Jun-15 14:30N 40°40' W 074°00'0 0.0
2018-Jun-15 14:00N 40°40' W 074°00'0 0.0
2018-Jun-15 13:30N 40°40' W 074°00'0 0.0
2018-Jun-15 13:00N 40°40' W 074°00'0 0.0
2018-Jun-15 12:30N 40°40' W 074°00'0 0.0
2018-Jun-15 11:57N 40°40' W 074°00'0 0.0
2018-Jun-15 11:30N 40°40' W 074°00'0 0.0
2018-Jun-15 11:00N 40°40' W 074°00'0 0.0
2018-Jun-15 10:30N 40°40' W 074°00'0 0.0
2018-Jun-15 10:00N 40°40' W 074°00'0 0.0
2018-Jun-15 09:30N 40°40' W 074°00'0 0.0
2018-Jun-15 09:00N 40°40' W 074°00'0 0.0
2018-Jun-15 08:30N 40°40' W 074°00'0 0.0
2018-Jun-15 08:00N 40°40' W 074°00'0 0.0
2018-Jun-15 07:30N 40°40' W 074°00'0 0.0
2018-Jun-15 07:00N 40°40' W 074°00'0 0.0
2018-Jun-15 06:30N 40°40' W 074°00'0 0.0
2018-Jun-15 06:00N 40°40' W 074°00'0 0.0
2018-Jun-15 05:30N 40°40' W 074°00'3 5.2
2018-Jun-15 05:00N 40°39' W 074°03'4 8.7
2018-Jun-15 04:30N 40°40' W 074°09'0 0.8
2018-Jun-15 04:00N 40°40' W 074°08'2 5.0
2018-Jun-15 03:30N 40°39' W 074°05'4 8.4
2018-Jun-15 03:00N 40°40' W 074°00'0 0.1
2018-Jun-15 02:30N 40°40' W 074°00'1 2.2
2018-Jun-15 02:01N 40°40' W 074°01'1 2.1
2018-Jun-15 01:30N 40°40' W 074°00'0 0.0
2018-Jun-15 01:00N 40°40' W 074°00'0 0.0
2018-Jun-15 00:30N 40°40' W 074°00'1 1.9
2018-Jun-15 00:00N 40°40' W 074°01'1 1.5
2018-Jun-14 23:30N 40°40' W 074°00'0 0.6
2018-Jun-14 23:00N 40°40' W 074°00'0 0.0
2018-Jun-14 22:30N 40°40' W 074°00'0 0.0
2018-Jun-14 22:00N 40°40' W 074°00'0 0.0
2018-Jun-14 21:30N 40°40' W 074°00'0 0.0
2018-Jun-14 21:00N 40°40' W 074°00'0 0.0
2018-Jun-14 20:30N 40°40' W 074°00'0 0.0
2018-Jun-14 20:00N 40°40' W 074°00'0 0.0
2018-Jun-14 19:30N 40°40' W 074°00'0 0.0
2018-Jun-14 19:00N 40°40' W 074°00'0 0.0
2018-Jun-14 18:30N 40°40' W 074°00'0 0.0
2018-Jun-14 18:00N 40°40' W 074°00'0 0.0
2018-Jun-14 17:30N 40°40' W 074°00'0 0.0
2018-Jun-14 17:00N 40°40' W 074°00'0 0.0
2018-Jun-14 16:30N 40°40' W 074°00'0 0.0
2018-Jun-14 16:00N 40°40' W 074°00'0 0.0
2018-Jun-14 15:30N 40°40' W 074°00'0 0.0
2018-Jun-14 15:00N 40°40' W 074°00'0 0.0
2018-Jun-14 14:30N 40°40' W 074°00'0 0.0
2018-Jun-14 14:00N 40°40' W 074°00'0 0.0
2018-Jun-14 13:30N 40°40' W 074°00'0 0.0
2018-Jun-14 13:00N 40°40' W 074°00'0 0.0
2018-Jun-14 12:27N 40°40' W 074°00'0 0.0
2018-Jun-14 12:00N 40°40' W 074°00'0 0.0
2018-Jun-14 11:30N 40°40' W 074°00'0 0.0
2018-Jun-14 11:00N 40°40' W 074°00'0 0.0
2018-Jun-14 10:30N 40°40' W 074°00'0 0.0
2018-Jun-14 10:00N 40°40' W 074°00'0 0.0
2018-Jun-14 09:30N 40°40' W 074°00'0 0.0
2018-Jun-14 09:00N 40°40' W 074°00'0 0.0
2018-Jun-14 08:30N 40°40' W 074°00'0 0.0
2018-Jun-14 08:00N 40°40' W 074°00'0 0.0
2018-Jun-14 07:30N 40°40' W 074°00'0 0.0
2018-Jun-14 07:00N 40°40' W 074°00'0 0.0
2018-Jun-14 06:30N 40°40' W 074°00'0 0.0
2018-Jun-14 05:57N 40°40' W 074°00'0 0.0
2018-Jun-14 05:30N 40°40' W 074°00'3 5.5
2018-Jun-14 05:00N 40°39' W 074°03'510.7
2018-Jun-14 04:30N 40°39' W 074°10'1 0.2
2018-Jun-14 01:03N 40°39' W 074°11'1 8.3
2018-Jun-14 00:59N 40°39' W 074°11'4 8.9
2018-Jun-14 00:31N 40°39' W 074°05'4 7.6
2018-Jun-14 00:01N 40°40' W 074°00'0 0.5
2018-Jun-13 23:30N 40°40' W 074°00'0 0.0
2018-Jun-13 23:00N 40°40' W 074°00'0 0.0
2018-Jun-13 22:30N 40°40' W 074°00'0 0.0
2018-Jun-13 22:00N 40°40' W 074°00'0 0.0
2018-Jun-13 21:30N 40°40' W 074°00'0 0.0
2018-Jun-13 21:00N 40°40' W 074°00'0 0.0
2018-Jun-13 20:30N 40°40' W 074°00'0 0.0
2018-Jun-13 20:00N 40°40' W 074°00'0 0.0
2018-Jun-13 19:30N 40°40' W 074°00'0 0.0
2018-Jun-13 19:00N 40°40' W 074°00'0 0.0
2018-Jun-13 18:30N 40°40' W 074°00'2 4.3
2018-Jun-13 17:59N 40°40' W 074°03'1 1.7
2018-Jun-13 17:30N 40°40' W 074°02'1 2.9
2018-Jun-13 16:59N 40°40' W 074°00'0 0.0
2018-Jun-13 16:29N 40°40' W 074°00'0 0.0
2018-Jun-13 15:59N 40°40' W 074°00'0 0.0
2018-Jun-13 15:29N 40°40' W 074°00'1 2.9
2018-Jun-13 15:00N 40°41' W 074°00'2 3.7
2018-Jun-13 14:31N 40°40' W 074°01'3 5.2
2018-Jun-13 13:57N 40°38' W 074°04'2 5.4
2018-Jun-13 13:30N 40°40' W 074°02'1 2.1
2018-Jun-13 13:00N 40°40' W 074°01'1 1.2
2018-Jun-13 12:28N 40°40' W 074°00'1 1.4
2018-Jun-13 12:00N 40°40' W 074°01'4 7.2
2018-Jun-13 11:30N 40°43' W 074°01'3 4.1
2018-Jun-13 10:48N 40°46' W 074°00'2 8.2
2018-Jun-13 10:30N 40°44' W 074°01'4 7.8
2018-Jun-13 10:00N 40°40' W 074°00'0 0.6
2018-Jun-13 09:28N 40°40' W 074°00'0 0.0
2018-Jun-13 08:58N 40°40' W 074°00'0 0.0
2018-Jun-13 08:28N 40°40' W 074°00'0 0.0
2018-Jun-13 07:58N 40°40' W 074°00'0 0.0
2018-Jun-13 07:28N 40°40' W 074°00'0 0.0
2018-Jun-13 06:58N 40°40' W 074°00'0 0.0
2018-Jun-13 06:28N 40°40' W 074°00'0 0.0
2018-Jun-13 05:58N 40°40' W 074°00'0 0.0
2018-Jun-13 05:28N 40°40' W 074°00'0 0.0
2018-Jun-13 04:58N 40°40' W 074°00'0 0.0
2018-Jun-13 04:28N 40°40' W 074°00'0 0.0
2018-Jun-13 03:58N 40°40' W 074°00'0 0.0
2018-Jun-13 03:28N 40°40' W 074°00'0 0.0
2018-Jun-13 02:58N 40°40' W 074°00'0 0.0
2018-Jun-13 02:25N 40°40' W 074°00'0 0.0
2018-Jun-13 01:58N 40°40' W 074°00'0 0.0
2018-Jun-13 01:28N 40°40' W 074°00'0 0.0
2018-Jun-13 00:58N 40°40' W 074°00'0 0.0
2018-Jun-13 00:28N 40°40' W 074°00'3 7.0
2018-Jun-13 00:00N 40°39' W 074°04'2 3.5
2018-Jun-12 23:29N 40°39' W 074°07'2 4.8
2018-Jun-12 23:00N 40°39' W 074°04'2 4.1
2018-Jun-12 22:29N 40°40' W 074°01'1 1.0
2018-Jun-12 22:00N 40°40' W 074°00'0 0.5
2018-Jun-12 21:29N 40°40' W 074°00'0 0.0
2018-Jun-12 20:59N 40°40' W 074°00'0 0.0
2018-Jun-12 20:29N 40°40' W 074°00'0 0.0
2018-Jun-12 19:59N 40°40' W 074°00'0 0.0
2018-Jun-12 19:29N 40°40' W 074°00'1 1.2
2018-Jun-12 19:00N 40°40' W 074°01'2 3.4
2018-Jun-12 18:28N 40°40' W 074°03'0 0.6
2018-Jun-12 18:00N 40°40' W 074°03'5 8.5
2018-Jun-12 17:28N 40°39' W 074°09'2 2.0
2018-Jun-12 16:22N 40°41' W 074°09'2 5.8
2018-Jun-12 16:00N 40°39' W 074°09'4 7.4
2018-Jun-12 15:30N 40°39' W 074°04'3 5.9
2018-Jun-12 14:58N 40°40' W 074°00'0 0.6
2018-Jun-12 14:28N 40°40' W 074°00'0 0.0
2018-Jun-12 13:58N 40°40' W 074°00'0 0.6
2018-Jun-12 13:30N 40°40' W 074°00'0 0.0
2018-Jun-12 13:00N 40°40' W 074°00'0 0.0
2018-Jun-12 12:30N 40°40' W 074°00'0 0.0
2018-Jun-12 12:00N 40°40' W 074°00'0 0.0
2018-Jun-12 10:18N 40°40' W 074°00'0 0.0
2018-Jun-12 10:00N 40°40' W 074°00'0 0.0
2018-Jun-12 00:06N 40°40' W 074°00'0 0.0
2018-Jun-12 00:00N 40°40' W 074°00'0 0.1
2018-Jun-11 18:18N 40°40' W 074°00'6 7.7
2018-Jun-11 17:29N 40°40' W 074°09'2 4.6
2018-Jun-11 16:56N 40°39' W 074°06'3 8.0
2018-Jun-11 16:30N 40°40' W 074°01'1 0.2
2018-Jun-11 14:09N 40°40' W 074°00'0 0.1
2018-Jun-11 11:14N 40°40' W 074°00'0 0.0
2018-Jun-11 10:59N 40°40' W 074°00'0 0.0
2018-Jun-11 10:20N 40°40' W 074°00'0 0.0
2018-Jun-11 09:56N 40°40' W 074°00'0 0.0
2018-Jun-11 09:20N 40°40' W 074°00'0 0.0
2018-Jun-11 08:50N 40°40' W 074°00'0 0.0
2018-Jun-11 08:26N 40°40' W 074°00'0 0.0
2018-Jun-11 07:44N 40°40' W 074°00'0 0.0
2018-Jun-11 07:23N 40°40' W 074°00'0 0.0
2018-Jun-11 06:56N 40°40' W 074°00'0 0.0
2018-Jun-11 06:29N 40°40' W 074°00'0 0.0
2018-Jun-11 05:59N 40°40' W 074°00'0 0.0
2018-Jun-11 05:29N 40°40' W 074°00'0 0.0
2018-Jun-11 04:59N 40°40' W 074°00'0 0.0
2018-Jun-11 04:29N 40°40' W 074°00'0 0.0
2018-Jun-11 03:59N 40°40' W 074°00'0 0.0
2018-Jun-11 03:29N 40°40' W 074°00'0 0.0
2018-Jun-11 02:59N 40°40' W 074°00'0 0.0
2018-Jun-11 02:29N 40°40' W 074°00'0 0.0
2018-Jun-11 01:59N 40°40' W 074°00'0 0.0
2018-Jun-11 01:29N 40°40' W 074°00'0 0.0
2018-Jun-11 00:59N 40°40' W 074°00'0 0.0
2018-Jun-11 00:29N 40°40' W 074°00'0 0.0
2018-Jun-10 23:59N 40°40' W 074°00'0 0.0
2018-Jun-10 23:29N 40°40' W 074°00'0 0.0
2018-Jun-10 22:59N 40°40' W 074°00'0 0.0
2018-Jun-10 22:29N 40°40' W 074°00'0 0.0
2018-Jun-10 21:59N 40°40' W 074°00'0 0.0
2018-Jun-10 21:29N 40°40' W 074°00'0 0.0
2018-Jun-10 21:00N 40°40' W 074°00'1 2.5
2018-Jun-10 20:30N 40°41' W 074°01'0 0.3
2018-Jun-10 20:00N 40°41' W 074°00'1 2.6
2018-Jun-10 19:28N 40°40' W 074°00'0 0.0
2018-Jun-10 18:58N 40°40' W 074°00'0 0.0
2018-Jun-10 18:28N 40°40' W 074°00'0 0.0
2018-Jun-10 17:58N 40°40' W 074°00'0 0.0
2018-Jun-10 17:28N 40°40' W 074°00'0 0.0
2018-Jun-10 16:52N 40°40' W 074°00'0 0.0
2018-Jun-10 16:25N 40°40' W 074°00'0 0.0
2018-Jun-10 15:58N 40°40' W 074°00'0 0.0
2018-Jun-10 15:28N 40°40' W 074°00'0 0.0
2018-Jun-10 14:58N 40°40' W 074°00'0 0.0
2018-Jun-10 14:28N 40°40' W 074°00'0 0.0
2018-Jun-10 13:28N 40°40' W 074°00'0 0.0
2018-Jun-10 12:55N 40°40' W 074°00'0 0.0
2018-Jun-10 12:25N 40°40' W 074°00'0 0.0
2018-Jun-10 11:58N 40°40' W 074°00'0 0.0
2018-Jun-10 11:25N 40°40' W 074°00'0 0.0
2018-Jun-10 10:58N 40°40' W 074°00'0 0.0
2018-Jun-10 10:28N 40°40' W 074°00'0 0.0
2018-Jun-10 09:55N 40°40' W 074°00'0 0.0
2018-Jun-10 09:25N 40°40' W 074°00'0 0.0
2018-Jun-10 08:58N 40°40' W 074°00'0 0.0
2018-Jun-10 08:28N 40°40' W 074°00'0 0.0
2018-Jun-10 07:58N 40°40' W 074°00'0 0.0
2018-Jun-10 07:28N 40°40' W 074°00'0 0.0
2018-Jun-10 06:58N 40°40' W 074°00'0 0.0
2018-Jun-10 06:28N 40°40' W 074°00'0 0.0
2018-Jun-10 05:58N 40°40' W 074°00'0 0.0
2018-Jun-10 05:28N 40°40' W 074°00'0 0.0
2018-Jun-10 04:58N 40°40' W 074°00'0 0.0
2018-Jun-10 04:30N 40°40' W 074°00'0 0.0
2018-Jun-10 04:00N 40°40' W 074°00'0 0.0
2018-Jun-10 03:30N 40°40' W 074°00'0 0.0
2018-Jun-10 03:00N 40°40' W 074°00'0 0.0
2018-Jun-10 02:30N 40°40' W 074°00'0 0.0
2018-Jun-10 02:00N 40°40' W 074°00'0 0.0
2018-Jun-10 01:31N 40°40' W 074°00'0 0.6
2018-Jun-10 01:00N 40°40' W 074°00'0 0.0
2018-Jun-10 00:31N 40°40' W 074°00'0 0.0
2018-Jun-10 00:00N 40°40' W 074°00'1 2.2
2018-Jun-09 23:31N 40°41' W 074°01'3 5.4
2018-Jun-09 23:01N 40°42' W 073°58'0 0.3
2018-Jun-09 22:31N 40°42' W 073°58'0 0.1
2018-Jun-09 22:01N 40°42' W 073°58'0 0.4
2018-Jun-09 21:31N 40°42' W 073°58'0 0.3
2018-Jun-09 21:01N 40°42' W 073°58'0 0.0
2018-Jun-09 20:31N 40°42' W 073°58'0 0.0
2018-Jun-09 20:01N 40°42' W 073°58'0 0.0
2018-Jun-09 19:29N 40°42' W 073°58'0 0.0
2018-Jun-09 19:00N 40°42' W 073°58'0 0.0
2018-Jun-09 18:31N 40°42' W 073°58'0 0.0
2018-Jun-09 18:00N 40°42' W 073°58'0 0.0
2018-Jun-09 17:31N 40°42' W 073°58'1 1.3
2018-Jun-09 17:01N 40°42' W 073°59'4 8.3
2018-Jun-09 16:30N 40°40' W 074°03'3 1.2
2018-Jun-09 13:50N 40°39' W 074°07'3 8.7
2018-Jun-09 13:29N 40°39' W 074°11'  

Dump ship's entire track history